Kansas, Oklahoma
Current Conditions -  °F | °C
As of 4:55 AM on Sunday 23 Nov 2014 (Local Time) from KSLG Reporting Station
Overcast Overcast  
Wind Chill: 57°   Ceiling: 1300
Heat Index: 57°   Visibility: 10mi
Dew Point: 52°   Wind: 8mph
Humidity: 82%   Direction: 150°SSE
Pressure: 29.61"   Gusts: NA
Location:  36.21°N, 94.8°W
Report Text: KSLG 231055Z AUTO 15007KT 10SM OVC013 14/11 A2961 RMK AO1
Loading
Personal Weather Stations






























Interactive Weather Map New forecast layout! Learn more

10-Day Weather Forecast

Advertisements
Track Severe Weather on mobile